createdAt,value
2023-04-30T00:01:01.443Z,7.59
2023-04-30T00:03:28.190Z,7.56
2023-04-30T00:05:54.917Z,7.02
2023-04-30T00:08:21.523Z,7.35
2023-04-30T00:10:48.085Z,7.58
2023-04-30T00:13:14.743Z,7.47
2023-04-30T00:15:41.911Z,7.36
2023-04-30T00:18:09.044Z,7.33
2023-04-30T00:20:36.072Z,7.32
2023-04-30T00:23:02.674Z,7.01
2023-04-30T00:25:29.328Z,7.15
2023-04-30T00:27:56.310Z,7.44
2023-04-30T00:30:22.876Z,7.35
2023-04-30T00:32:49.614Z,7.36
2023-04-30T00:35:16.426Z,7.38
2023-04-30T00:37:43.026Z,7.33
2023-04-30T00:40:10.109Z,7.23
2023-04-30T00:42:36.887Z,7.13
2023-04-30T00:45:03.653Z,7.15
2023-04-30T00:47:32.273Z,7.15
2023-04-30T00:49:59.272Z,6.84
2023-04-30T00:52:27.056Z,7.17
2023-04-30T00:54:54.534Z,7.00
2023-04-30T00:57:21.855Z,7.17
2023-04-30T00:59:48.935Z,7.06
2023-04-30T01:02:16.089Z,7.01
2023-04-30T01:04:43.612Z,7.02
2023-04-30T01:07:10.473Z,6.98
2023-04-30T01:09:37.206Z,6.96
2023-04-30T01:12:21.573Z,6.70
2023-04-30T01:15:11.350Z,6.97
2023-04-30T01:17:45.401Z,6.91
2023-04-30T01:20:13.254Z,6.82
2023-04-30T01:22:47.308Z,6.93
2023-04-30T01:25:35.308Z,6.85
2023-04-30T01:28:01.840Z,6.91
2023-04-30T01:30:30.808Z,6.92
2023-04-30T01:32:58.041Z,6.75
2023-04-30T01:35:53.600Z,6.93
2023-04-30T01:38:43.433Z,6.91
2023-04-30T01:41:23.426Z,6.69
2023-04-30T01:44:04.458Z,6.86
2023-04-30T01:46:31.816Z,6.85
2023-04-30T01:49:30.436Z,6.80
2023-04-30T01:52:09.990Z,6.74
2023-04-30T01:54:47.677Z,6.66
2023-04-30T01:57:21.752Z,6.38
2023-04-30T01:59:48.450Z,6.75
2023-04-30T02:02:15.116Z,6.66
2023-04-30T02:04:41.741Z,6.59
2023-04-30T02:07:08.376Z,6.53
2023-04-30T02:09:35.005Z,6.54
2023-04-30T02:12:01.642Z,6.51
2023-04-30T02:14:28.195Z,6.48
2023-04-30T02:16:54.961Z,5.99
2023-04-30T02:19:21.572Z,6.20
2023-04-30T02:21:48.122Z,6.45
2023-04-30T02:24:14.718Z,6.39
2023-04-30T02:26:41.293Z,6.37
2023-04-30T02:29:07.905Z,6.27
2023-04-30T02:31:34.586Z,6.34
2023-04-30T02:34:01.356Z,6.26
2023-04-30T02:36:27.951Z,6.35
2023-04-30T02:38:54.489Z,6.29
2023-04-30T02:41:21.830Z,6.28
2023-04-30T02:43:48.384Z,5.87
2023-04-30T02:46:15.057Z,6.15
2023-04-30T02:48:41.753Z,6.19
2023-04-30T02:51:08.321Z,6.13
2023-04-30T02:53:34.926Z,6.05
2023-04-30T02:56:01.576Z,6.15
2023-04-30T02:58:28.183Z,6.08
2023-04-30T03:00:54.754Z,6.15
2023-04-30T03:03:21.507Z,6.12
2023-04-30T03:05:48.255Z,6.11
2023-04-30T03:08:14.814Z,5.85
2023-04-30T03:10:41.556Z,6.00
2023-04-30T03:13:08.197Z,6.16
2023-04-30T03:15:34.775Z,6.20
2023-04-30T03:18:01.371Z,5.78
2023-04-30T03:20:28.067Z,6.16
2023-04-30T03:22:55.145Z,6.20
2023-04-30T03:25:21.689Z,6.11
2023-04-30T03:27:48.231Z,6.16
2023-04-30T03:30:14.873Z,6.10
2023-04-30T03:32:41.481Z,5.84
2023-04-30T03:35:08.559Z,6.18
2023-04-30T03:37:35.104Z,5.84
2023-04-30T03:40:01.682Z,6.13
2023-04-30T03:42:28.350Z,5.88
2023-04-30T03:44:54.914Z,6.09
2023-04-30T03:47:21.502Z,5.99
2023-04-30T03:49:55.439Z,5.92
2023-04-30T03:52:22.673Z,5.87
2023-04-30T03:54:49.253Z,6.00
2023-04-30T03:57:15.975Z,6.01
2023-04-30T03:59:42.620Z,6.02
2023-04-30T04:02:09.250Z,6.09
2023-04-30T04:04:35.956Z,6.14
2023-04-30T04:07:03.933Z,6.26
2023-04-30T04:09:30.738Z,6.23
2023-04-30T04:11:58.049Z,5.96
2023-04-30T04:14:24.678Z,6.32
2023-04-30T04:16:51.411Z,6.28
2023-04-30T04:19:18.103Z,6.11
2023-04-30T04:21:44.638Z,6.36
2023-04-30T04:24:11.494Z,5.55
2023-04-30T04:26:38.408Z,6.44
2023-04-30T04:29:05.186Z,6.54
2023-04-30T04:31:32.245Z,6.45
2023-04-30T04:34:00.737Z,6.56
2023-04-30T04:36:28.872Z,6.49
2023-04-30T04:38:57.824Z,6.32
2023-04-30T04:41:25.984Z,6.40
2023-04-30T04:43:53.062Z,6.55
2023-04-30T04:46:21.064Z,6.76
2023-04-30T04:48:47.837Z,6.91
2023-04-30T04:51:14.430Z,6.62
2023-04-30T04:53:41.122Z,6.98
2023-04-30T04:56:08.449Z,6.99
2023-04-30T04:58:35.404Z,7.00
2023-04-30T05:01:02.717Z,6.65
2023-04-30T05:03:29.919Z,7.05
2023-04-30T05:05:56.686Z,7.14
2023-04-30T05:08:23.313Z,7.20
2023-04-30T05:10:49.885Z,7.05
2023-04-30T05:13:16.576Z,7.09
2023-04-30T05:15:43.467Z,7.47
2023-04-30T05:18:10.163Z,7.52
2023-04-30T05:20:36.784Z,7.62
2023-04-30T05:23:03.481Z,7.68
2023-04-30T05:25:30.198Z,7.69
2023-04-30T05:27:57.160Z,7.69
2023-04-30T05:30:23.811Z,7.82
2023-04-30T05:32:52.707Z,7.83
2023-04-30T05:35:20.068Z,7.79
2023-04-30T05:37:46.704Z,7.98
2023-04-30T05:40:13.886Z,8.14
2023-04-30T05:42:41.087Z,8.13
2023-04-30T05:45:08.530Z,8.14
2023-04-30T05:47:35.112Z,8.24
2023-04-30T05:50:01.949Z,8.34
2023-04-30T05:52:28.556Z,8.45
2023-04-30T05:54:55.130Z,8.56
2023-04-30T05:57:22.002Z,8.63
2023-04-30T05:59:48.596Z,8.50
2023-04-30T06:02:15.384Z,8.81
2023-04-30T06:04:42.873Z,8.74
2023-04-30T06:07:09.731Z,8.80
2023-04-30T06:09:36.275Z,9.06
2023-04-30T06:12:04.092Z,9.11
2023-04-30T06:14:31.011Z,9.13
2023-04-30T06:16:57.745Z,9.17
2023-04-30T06:19:24.468Z,9.08
2023-04-30T06:21:51.163Z,9.21
2023-04-30T06:24:17.772Z,9.19
2023-04-30T06:26:44.342Z,9.42
2023-04-30T06:29:10.907Z,9.07
2023-04-30T06:31:37.522Z,8.84
2023-04-30T06:34:04.234Z,9.34
2023-04-30T06:36:31.650Z,9.53
2023-04-30T06:38:58.234Z,9.41
2023-04-30T06:41:24.772Z,9.57
2023-04-30T06:43:51.488Z,9.48
2023-04-30T06:46:18.063Z,9.79
2023-04-30T06:48:44.777Z,9.35
2023-04-30T06:51:11.340Z,9.92
2023-04-30T06:53:38.000Z,9.94
2023-04-30T06:56:04.816Z,10.10
2023-04-30T06:58:31.389Z,10.03
2023-04-30T07:00:58.351Z,10.01
2023-04-30T07:03:25.088Z,9.98
2023-04-30T07:05:54.031Z,10.28
2023-04-30T07:08:22.486Z,10.05
2023-04-30T07:10:49.114Z,10.12
2023-04-30T07:13:16.717Z,10.06
2023-04-30T07:15:43.527Z,10.05
2023-04-30T07:18:10.485Z,10.18
2023-04-30T07:20:37.309Z,10.22
2023-04-30T07:23:03.873Z,10.38
2023-04-30T07:25:30.519Z,10.36
2023-04-30T07:27:57.148Z,10.53
2023-04-30T07:30:25.215Z,10.92
2023-04-30T07:32:52.182Z,11.11
2023-04-30T07:35:19.242Z,11.33
2023-04-30T07:37:46.042Z,11.23
2023-04-30T07:40:17.198Z,11.22
2023-04-30T07:42:48.870Z,11.21
2023-04-30T07:45:15.505Z,11.24
2023-04-30T07:47:42.141Z,11.17
2023-04-30T07:50:08.929Z,10.70
2023-04-30T07:52:35.489Z,10.34
2023-04-30T07:55:02.150Z,10.21
2023-04-30T07:57:28.876Z,10.42
2023-04-30T07:59:56.012Z,10.53
2023-04-30T08:02:22.956Z,10.29
2023-04-30T08:04:49.631Z,10.05
2023-04-30T08:07:16.224Z,10.37
2023-04-30T08:09:42.864Z,10.59
2023-04-30T08:12:10.262Z,10.83
2023-04-30T08:14:37.118Z,10.93
2023-04-30T08:17:04.356Z,11.38
2023-04-30T08:19:31.279Z,11.61
2023-04-30T08:21:58.781Z,11.41
2023-04-30T08:24:25.629Z,11.58
2023-04-30T08:26:53.599Z,10.63
2023-04-30T08:29:21.347Z,11.28
2023-04-30T08:31:48.040Z,11.44
2023-04-30T08:34:14.663Z,11.43
2023-04-30T08:36:41.389Z,11.14
2023-04-30T08:39:08.159Z,11.68
2023-04-30T08:41:39.889Z,11.69
2023-04-30T08:44:08.348Z,11.67
2023-04-30T08:46:37.944Z,10.93
2023-04-30T08:49:04.928Z,11.65
2023-04-30T08:51:32.945Z,11.45
2023-04-30T08:53:59.603Z,12.08
2023-04-30T08:56:26.272Z,12.19
2023-04-30T08:58:52.878Z,12.42
2023-04-30T09:01:20.218Z,12.14
2023-04-30T09:03:47.253Z,12.51
2023-04-30T09:06:17.543Z,12.59
2023-04-30T09:08:48.668Z,12.68
2023-04-30T09:11:31.674Z,12.68
2023-04-30T09:14:00.125Z,12.37
2023-04-30T09:16:31.020Z,12.72
2023-04-30T09:18:57.787Z,12.68
2023-04-30T09:21:37.259Z,12.99
2023-04-30T09:24:05.677Z,13.03
2023-04-30T09:26:32.325Z,12.99
2023-04-30T09:28:59.995Z,12.64
2023-04-30T09:31:27.449Z,12.91
2023-04-30T09:33:54.744Z,12.86
2023-04-30T09:36:21.595Z,12.51
2023-04-30T09:38:48.370Z,13.13
2023-04-30T09:41:28.114Z,13.26
2023-04-30T09:43:56.339Z,13.65
2023-04-30T09:46:31.044Z,13.69
2023-04-30T09:48:59.665Z,14.00
2023-04-30T09:51:27.255Z,13.51
2023-04-30T09:53:54.965Z,13.67
2023-04-30T09:56:23.497Z,13.77
2023-04-30T09:58:55.468Z,13.93
2023-04-30T10:01:27.008Z,13.49
2023-04-30T10:03:54.142Z,14.09
2023-04-30T10:06:25.850Z,13.89
2023-04-30T10:08:57.095Z,14.40
2023-04-30T10:11:28.160Z,14.23
2023-04-30T10:14:03.255Z,14.20
2023-04-30T10:16:36.161Z,14.46
2023-04-30T10:19:30.403Z,14.52
2023-04-30T10:21:57.286Z,14.59
2023-04-30T10:24:23.973Z,14.62
2023-04-30T10:26:50.615Z,14.90
2023-04-30T10:29:18.562Z,14.25
2023-04-30T10:31:47.429Z,14.57
2023-04-30T10:34:38.534Z,14.64
2023-04-30T10:37:13.416Z,15.20
2023-04-30T10:39:40.091Z,14.66
2023-04-30T10:42:07.445Z,14.77
2023-04-30T10:44:36.589Z,15.28
2023-04-30T10:47:05.408Z,15.35
2023-04-30T10:49:32.964Z,15.93
2023-04-30T10:52:02.105Z,16.47
2023-04-30T10:54:31.199Z,17.32
2023-04-30T10:57:15.122Z,19.73
2023-04-30T10:59:52.674Z,23.46
2023-04-30T11:02:19.697Z,26.01
2023-04-30T11:05:08.253Z,27.42
2023-04-30T11:07:35.012Z,28.35
2023-04-30T11:10:04.958Z,27.91
2023-04-30T11:12:31.610Z,28.92
2023-04-30T11:15:07.214Z,29.76
2023-04-30T11:17:34.592Z,29.40
2023-04-30T11:20:02.093Z,29.93
2023-04-30T11:22:36.397Z,27.75
2023-04-30T11:25:05.250Z,27.48
2023-04-30T11:27:34.329Z,27.90
2023-04-30T11:30:01.972Z,27.08
2023-04-30T11:32:36.637Z,26.32
2023-04-30T11:35:05.115Z,26.64
2023-04-30T11:37:34.050Z,27.52
2023-04-30T11:40:04.172Z,26.46
2023-04-30T11:42:31.655Z,25.29
2023-04-30T11:45:09.429Z,25.71
2023-04-30T11:47:55.273Z,25.12
2023-04-30T11:50:29.682Z,25.54
2023-04-30T11:52:58.147Z,25.76
2023-04-30T11:55:26.574Z,24.85
2023-04-30T11:57:56.098Z,24.09
2023-04-30T12:00:28.764Z,25.56
2023-04-30T12:02:56.857Z,26.87
2023-04-30T12:05:26.962Z,25.86
2023-04-30T12:07:59.960Z,27.63
2023-04-30T12:10:27.242Z,27.97
2023-04-30T12:12:54.880Z,29.77
2023-04-30T12:15:26.699Z,32.45
2023-04-30T12:17:56.454Z,32.11
2023-04-30T12:20:26.638Z,32.27
2023-04-30T12:22:53.528Z,33.42
2023-04-30T12:25:22.046Z,31.41
2023-04-30T12:27:50.913Z,32.15
2023-04-30T12:30:25.492Z,32.10
2023-04-30T12:32:54.834Z,32.29
2023-04-30T12:35:23.111Z,32.34
2023-04-30T12:37:52.260Z,32.67
2023-04-30T12:40:27.197Z,33.69
2023-04-30T12:43:05.540Z,35.03
2023-04-30T12:45:44.687Z,36.98
2023-04-30T12:48:12.020Z,36.40
2023-04-30T12:50:39.429Z,38.39
2023-04-30T12:53:07.756Z,35.31
2023-04-30T12:55:37.466Z,39.16
2023-04-30T12:58:07.551Z,40.78
2023-04-30T13:00:51.106Z,41.00
2023-04-30T13:03:21.995Z,40.36
2023-04-30T13:05:51.536Z,40.33
2023-04-30T13:08:19.766Z,42.14
2023-04-30T13:10:48.010Z,42.88
2023-04-30T13:13:16.780Z,41.86
2023-04-30T13:15:43.807Z,41.56
2023-04-30T13:18:10.755Z,40.38
2023-04-30T13:20:38.280Z,40.56
2023-04-30T13:23:07.941Z,41.53
2023-04-30T13:25:36.716Z,39.97
2023-04-30T13:28:04.156Z,40.30
2023-04-30T13:30:31.017Z,41.66
2023-04-30T13:32:59.350Z,39.76
2023-04-30T13:35:26.071Z,40.18
2023-04-30T13:37:53.674Z,37.88
2023-04-30T13:40:21.102Z,39.08
2023-04-30T13:42:49.196Z,38.92
2023-04-30T13:45:16.424Z,39.43
2023-04-30T13:47:43.087Z,39.50
2023-04-30T13:50:10.151Z,36.71
2023-04-30T13:52:37.038Z,36.30
2023-04-30T13:55:04.984Z,38.02
2023-04-30T13:57:33.490Z,38.97
2023-04-30T14:00:00.505Z,39.44
2023-04-30T14:02:28.514Z,38.81
2023-04-30T14:05:05.234Z,38.84
2023-04-30T14:07:32.888Z,38.94
2023-04-30T14:09:59.519Z,39.71
2023-04-30T14:12:26.167Z,41.11
2023-04-30T14:14:53.091Z,39.87
2023-04-30T14:17:20.564Z,41.81
2023-04-30T14:19:47.454Z,42.66
2023-04-30T14:22:14.273Z,43.90
2023-04-30T14:24:41.172Z,41.41
2023-04-30T14:27:07.937Z,38.48
2023-04-30T14:29:34.684Z,38.55
2023-04-30T14:32:02.086Z,39.69
2023-04-30T14:34:28.657Z,39.46
2023-04-30T14:36:55.317Z,40.01
2023-04-30T14:39:21.968Z,41.20
2023-04-30T14:41:51.667Z,41.05
2023-04-30T14:44:19.540Z,41.27
2023-04-30T14:46:46.872Z,40.64
2023-04-30T14:49:13.395Z,39.87
2023-04-30T14:51:39.976Z,40.10
2023-04-30T14:54:06.652Z,39.96
2023-04-30T14:56:33.479Z,39.87
2023-04-30T14:59:00.138Z,39.32
2023-04-30T15:01:28.483Z,40.92
2023-04-30T15:03:55.374Z,39.63
2023-04-30T15:06:22.191Z,38.32
2023-04-30T15:08:48.881Z,38.76
2023-04-30T15:11:15.737Z,38.79
2023-04-30T15:13:42.382Z,36.43
2023-04-30T15:16:09.279Z,37.04
2023-04-30T15:18:36.005Z,35.75
2023-04-30T15:21:02.784Z,37.74
2023-04-30T15:23:30.364Z,37.19
2023-04-30T15:25:57.146Z,36.90
2023-04-30T15:28:24.793Z,36.59
2023-04-30T15:30:52.537Z,36.32
2023-04-30T15:33:24.672Z,37.35
2023-04-30T15:35:51.289Z,34.56
2023-04-30T15:38:18.041Z,35.23
2023-04-30T15:40:44.704Z,37.60
2023-04-30T15:43:11.244Z,36.39
2023-04-30T15:45:38.047Z,32.72
2023-04-30T15:48:05.300Z,34.59
2023-04-30T15:50:32.160Z,32.26
2023-04-30T15:52:58.735Z,32.47
2023-04-30T15:55:26.166Z,33.96
2023-04-30T15:57:52.717Z,34.61
2023-04-30T16:00:23.436Z,34.21
2023-04-30T16:02:50.127Z,34.58
2023-04-30T16:05:16.917Z,34.68
2023-04-30T16:07:44.869Z,34.22
2023-04-30T16:10:12.223Z,35.68
2023-04-30T16:12:39.552Z,35.00
2023-04-30T16:15:06.709Z,32.72
2023-04-30T16:17:33.510Z,30.22
2023-04-30T16:20:01.659Z,30.07
2023-04-30T16:22:28.455Z,29.18
2023-04-30T16:24:55.031Z,26.82
2023-04-30T16:27:21.594Z,28.39
2023-04-30T16:29:48.201Z,29.60
2023-04-30T16:32:14.953Z,28.75
2023-04-30T16:34:41.968Z,25.73
2023-04-30T16:37:09.534Z,24.44
2023-04-30T16:39:36.110Z,25.00
2023-04-30T16:42:02.963Z,23.85
2023-04-30T16:44:29.547Z,24.39
2023-04-30T16:46:59.573Z,23.89
2023-04-30T16:49:26.164Z,22.97
2023-04-30T16:51:52.743Z,22.57
2023-04-30T16:54:19.391Z,22.49
2023-04-30T16:56:46.069Z,22.39
2023-04-30T16:59:12.700Z,22.18
2023-04-30T17:01:39.309Z,22.03
2023-04-30T17:04:06.055Z,22.17
2023-04-30T17:06:33.687Z,21.78
2023-04-30T17:09:00.377Z,21.05
2023-04-30T17:11:27.208Z,21.03
2023-04-30T17:13:55.304Z,20.84
2023-04-30T17:16:22.322Z,19.47
2023-04-30T17:18:49.449Z,20.00
2023-04-30T17:21:16.137Z,19.30
2023-04-30T17:23:42.907Z,19.17
2023-04-30T17:26:09.707Z,19.14
2023-04-30T17:28:37.566Z,18.95
2023-04-30T17:31:07.118Z,19.16
2023-04-30T17:33:34.425Z,19.09
2023-04-30T17:36:01.184Z,18.91
2023-04-30T17:38:28.409Z,18.78
2023-04-30T17:40:56.797Z,18.36
2023-04-30T17:43:24.011Z,18.38
2023-04-30T17:45:53.776Z,18.33
2023-04-30T17:48:20.556Z,18.33
2023-04-30T17:50:47.235Z,18.29
2023-04-30T17:53:14.032Z,18.32
2023-04-30T17:55:40.707Z,17.99
2023-04-30T17:58:10.302Z,17.93
2023-04-30T18:00:39.397Z,17.96
2023-04-30T18:03:06.687Z,17.73
2023-04-30T18:05:35.686Z,17.69
2023-04-30T18:08:02.574Z,17.33
2023-04-30T18:10:29.218Z,17.47
2023-04-30T18:12:59.002Z,17.36
2023-04-30T18:15:26.147Z,17.13
2023-04-30T18:17:53.089Z,16.94
2023-04-30T18:20:21.210Z,16.68
2023-04-30T18:22:47.912Z,16.75
2023-04-30T18:25:17.255Z,16.29
2023-04-30T18:27:44.661Z,16.56
2023-04-30T18:30:12.846Z,16.50
2023-04-30T18:32:39.728Z,16.39
2023-04-30T18:35:06.722Z,16.38
2023-04-30T18:37:33.621Z,15.87
2023-04-30T18:40:00.645Z,16.14
2023-04-30T18:42:27.339Z,15.81
2023-04-30T18:44:54.500Z,15.76
2023-04-30T18:47:21.113Z,15.87
2023-04-30T18:49:47.711Z,15.51
2023-04-30T18:52:14.224Z,15.69
2023-04-30T18:54:42.195Z,15.45
2023-04-30T18:57:12.486Z,15.38
2023-04-30T18:59:39.773Z,15.38
2023-04-30T19:02:06.431Z,15.25
2023-04-30T19:04:33.066Z,15.20
2023-04-30T19:06:59.613Z,14.71
2023-04-30T19:09:26.156Z,15.01
2023-04-30T19:11:53.343Z,14.99
2023-04-30T19:14:19.913Z,14.74
2023-04-30T19:16:46.783Z,14.86
2023-04-30T19:19:14.054Z,14.77
2023-04-30T19:21:40.810Z,14.73
2023-04-30T19:24:07.498Z,14.60
2023-04-30T19:26:34.879Z,14.53
2023-04-30T19:29:01.583Z,14.42
2023-04-30T19:31:28.262Z,14.37
2023-04-30T19:33:55.064Z,14.27
2023-04-30T19:36:21.714Z,14.18
2023-04-30T19:38:51.379Z,13.85
2023-04-30T19:41:17.924Z,14.04
2023-04-30T19:43:44.836Z,13.92
2023-04-30T19:46:11.831Z,13.92
2023-04-30T19:48:38.534Z,13.79
2023-04-30T19:51:05.638Z,13.75
2023-04-30T19:53:32.330Z,13.70
2023-04-30T19:56:00.027Z,13.57
2023-04-30T19:58:26.691Z,13.35
2023-04-30T20:00:53.752Z,13.51
2023-04-30T20:03:21.970Z,13.45
2023-04-30T20:05:48.783Z,13.32
2023-04-30T20:08:15.402Z,13.28
2023-04-30T20:10:42.929Z,13.07
2023-04-30T20:13:09.788Z,12.98
2023-04-30T20:15:36.548Z,13.11
2023-04-30T20:18:03.701Z,12.77
2023-04-30T20:20:30.459Z,12.81
2023-04-30T20:22:57.199Z,12.64
2023-04-30T20:25:31.454Z,12.69
2023-04-30T20:27:58.069Z,12.66
2023-04-30T20:30:24.623Z,12.57
2023-04-30T20:32:51.414Z,12.56
2023-04-30T20:35:18.587Z,12.54
2023-04-30T20:37:45.232Z,12.37
2023-04-30T20:40:12.162Z,12.37
2023-04-30T20:42:40.940Z,12.37
2023-04-30T20:45:08.530Z,11.96
2023-04-30T20:47:35.134Z,12.34
2023-04-30T20:50:01.774Z,11.94
2023-04-30T20:52:28.363Z,12.14
2023-04-30T20:54:55.028Z,12.12
2023-04-30T20:57:21.663Z,12.15
2023-04-30T20:59:48.313Z,12.09
2023-04-30T21:02:14.972Z,11.63
2023-04-30T21:04:41.543Z,11.88
2023-04-30T21:07:08.261Z,11.86
2023-04-30T21:09:35.869Z,11.84
2023-04-30T21:12:05.231Z,11.70
2023-04-30T21:14:32.594Z,11.77
2023-04-30T21:16:59.762Z,11.85
2023-04-30T21:19:26.796Z,11.85
2023-04-30T21:21:53.475Z,11.80
2023-04-30T21:24:20.046Z,11.77
2023-04-30T21:26:46.821Z,11.74
2023-04-30T21:29:13.585Z,11.68
2023-04-30T21:31:40.130Z,11.38
2023-04-30T21:34:06.742Z,11.59
2023-04-30T21:36:33.511Z,11.46
2023-04-30T21:39:00.217Z,11.20
2023-04-30T21:41:28.308Z,11.31
2023-04-30T21:43:55.171Z,11.29
2023-04-30T21:46:22.925Z,11.26
2023-04-30T21:48:49.653Z,11.13
2023-04-30T21:51:17.572Z,10.61
2023-04-30T21:53:45.632Z,11.05
2023-04-30T21:56:12.935Z,10.82
2023-04-30T21:58:39.721Z,10.97
2023-04-30T22:01:06.533Z,10.93
2023-04-30T22:03:34.451Z,10.92
2023-04-30T22:06:01.427Z,10.42
2023-04-30T22:08:28.732Z,10.66
2023-04-30T22:10:59.850Z,10.65
2023-04-30T22:13:28.114Z,10.40
2023-04-30T22:15:55.446Z,10.42
2023-04-30T22:18:24.695Z,10.34
2023-04-30T22:20:52.472Z,10.41
2023-04-30T22:23:21.443Z,10.31
2023-04-30T22:25:48.296Z,10.22
2023-04-30T22:28:17.055Z,10.10
2023-04-30T22:30:43.702Z,9.98
2023-04-30T22:33:10.331Z,9.69
2023-04-30T22:35:40.200Z,9.73
2023-04-30T22:38:07.955Z,9.87
2023-04-30T22:40:37.988Z,9.89
2023-04-30T22:43:05.666Z,9.19
2023-04-30T22:45:32.910Z,9.88
2023-04-30T22:48:01.545Z,9.93
2023-04-30T22:50:28.534Z,9.90
2023-04-30T22:52:56.499Z,9.86
2023-04-30T22:55:23.362Z,9.50
2023-04-30T22:57:49.926Z,9.74
2023-04-30T23:00:18.317Z,9.80
2023-04-30T23:02:45.027Z,9.86
2023-04-30T23:05:13.053Z,9.51
2023-04-30T23:07:39.796Z,9.64
2023-04-30T23:10:07.612Z,9.40
2023-04-30T23:12:35.772Z,9.29
2023-04-30T23:15:02.380Z,9.28
2023-04-30T23:17:29.106Z,9.30
2023-04-30T23:19:58.855Z,9.23
2023-04-30T23:22:25.666Z,9.16
2023-04-30T23:24:52.396Z,9.30
2023-04-30T23:27:19.111Z,8.96
2023-04-30T23:29:45.767Z,8.82
2023-04-30T23:32:12.411Z,9.20
2023-04-30T23:34:39.116Z,9.25
2023-04-30T23:37:05.720Z,8.98
2023-04-30T23:39:32.804Z,9.05
2023-04-30T23:41:59.672Z,9.05
2023-04-30T23:44:26.270Z,9.06
2023-04-30T23:46:53.526Z,9.14
2023-04-30T23:49:24.587Z,9.07
2023-04-30T23:51:51.610Z,8.88
2023-04-30T23:54:18.387Z,8.97
2023-04-30T23:56:46.434Z,9.02
2023-04-30T23:59:13.101Z,8.93
